Time;durP1;ratioP1;P1;durP2;ratioP2;P2;SDS_P1;SDS_P2;PMS_P1;PMS_P2;Temp;Humidity;BMP_temperature;BMP_pressure;BME280_temperature;BME280_humidity;BME280_pressure;Samples;Min_cycle;Max_cycle;Signal;HPM_P1;HPM_P2
2021/05/04 00:00:05;;;;;;;2.38;2.17;;;;;17.50;99900.00;;;;5069250;28;20653;-77
2021/05/04 00:02:32;;;;;;;2.88;2.53;;;;;17.40;99902.00;;;;5088531;28;20211;-77
2021/05/04 00:04:58;;;;;;;2.58;2.13;;;;;17.40;99891.00;;;;5088407;28;20205;-76
2021/05/04 00:07:25;;;;;;;2.22;2.03;;;;;17.40;99872.00;;;;5088359;28;20725;-77
2021/05/04 00:09:53;;;;;;;2.83;2.25;;;;;17.30;99866.00;;;;5088651;28;20206;-77
2021/05/04 00:12:20;;;;;;;2.92;2.17;;;;;17.30;99870.00;;;;5087729;28;20218;-76
2021/05/04 00:14:46;;;;;;;2.92;2.40;;;;;17.30;99862.00;;;;5088823;28;20202;-76
2021/05/04 00:17:13;;;;;;;3.30;2.13;;;;;17.20;99848.00;;;;5087246;28;20229;-77
2021/05/04 00:19:40;;;;;;;2.30;2.08;;;;;17.20;99841.00;;;;5085561;28;20324;-77
2021/05/04 00:22:06;;;;;;;2.22;2.00;;;;;17.20;99842.00;;;;5070197;28;20191;-77
2021/05/04 00:24:33;;;;;;;3.65;2.60;;;;;17.10;99840.00;;;;5072188;28;20680;-77
2021/05/04 00:27:01;;;;;;;5.13;2.00;;;;;17.10;99841.00;;;;5071515;28;20576;-76
2021/05/04 00:29:27;;;;;;;2.28;1.90;;;;;17.00;99836.00;;;;5071915;28;20210;-77
2021/05/04 00:31:54;;;;;;;2.90;1.70;;;;;17.00;99832.00;;;;5071380;28;20206;-77
2021/05/04 00:34:21;;;;;;;2.53;2.05;;;;;17.00;99825.00;;;;5076021;28;20556;-77
2021/05/04 00:36:48;;;;;;;3.08;1.90;;;;;16.90;99828.00;;;;5091997;28;20229;-77
2021/05/04 00:39:14;;;;;;;1.60;1.45;;;;;16.90;99820.00;;;;5092027;28;20946;-76
2021/05/04 00:41:41;;;;;;;3.75;2.00;;;;;16.80;99822.00;;;;5092128;28;20198;-77
2021/05/04 00:44:09;;;;;;;3.22;2.10;;;;;16.70;99806.00;;;;5091109;28;20303;-76
2021/05/04 00:46:35;;;;;;;6.25;1.67;;;;;16.70;99781.00;;;;5091668;28;20209;-77
2021/05/04 00:49:02;;;;;;;6.22;1.90;;;;;16.60;99793.00;;;;5091546;28;20202;-77
2021/05/04 00:51:29;;;;;;;2.67;2.33;;;;;16.50;99782.00;;;;5091013;28;20213;-77
2021/05/04 00:53:56;;;;;;;2.38;1.70;;;;;16.50;99777.00;;;;5091814;28;20777;-78
2021/05/04 00:56:24;;;;;;;2.67;2.00;;;;;16.40;99776.00;;;;5088497;28;20673;-77
2021/05/04 00:58:52;;;;;;;2.58;1.98;;;;;16.30;99769.00;;;;5071013;28;20195;-77
2021/05/04 01:01:20;;;;;;;1.77;1.63;;;;;16.30;99766.00;;;;5071257;28;20202;-77
2021/05/04 01:03:48;;;;;;;2.40;1.60;;;;;16.20;99764.00;;;;5071622;28;20199;-77
2021/05/04 01:06:15;;;;;;;1.63;1.38;;;;;16.20;99762.00;;;;5071607;28;20533;-78
2021/05/04 01:08:42;;;;;;;1.58;1.48;;;;;16.20;99752.00;;;;5071335;28;20213;-77
2021/05/04 01:11:09;;;;;;;1.70;1.52;;;;;16.10;99741.00;;;;5071264;28;20227;-77
2021/05/04 01:13:35;;;;;;;1.95;1.58;;;;;16.00;99728.00;;;;5071347;28;20210;-77
2021/05/04 01:16:02;;;;;;;2.45;1.75;;;;;16.00;99722.00;;;;5071206;28;20203;-77
2021/05/04 01:18:30;;;;;;;2.25;1.70;;;;;15.90;99733.00;;;;5071556;28;20275;-77
2021/05/04 01:20:57;;;;;;;2.38;1.70;;;;;15.90;99728.00;;;;5078323;28;20202;-77
2021/05/04 01:23:24;;;;;;;2.30;1.63;;;;;15.90;99717.00;;;;5075298;28;20229;-77
2021/05/04 01:25:51;;;;;;;2.83;2.00;;;;;15.80;99702.00;;;;5071381;28;20285;-77
2021/05/04 01:28:17;;;;;;;2.47;1.58;;;;;15.80;99689.00;;;;5071165;28;20600;-76
2021/05/04 01:30:44;;;;;;;2.63;1.77;;;;;15.70;99679.00;;;;5070580;28;20573;-77
2021/05/04 01:33:11;;;;;;;2.53;1.35;;;;;15.70;99687.00;;;;5070633;28;20210;-77
2021/05/04 01:35:38;;;;;;;3.17;1.80;;;;;15.60;99678.00;;;;5070233;28;20191;-77
2021/05/04 01:38:05;;;;;;;2.50;1.75;;;;;15.60;99667.00;;;;5070359;28;20227;-77
2021/05/04 01:40:32;;;;;;;1.40;1.15;;;;;15.60;99670.00;;;;5070837;28;20202;-77
2021/05/04 01:42:59;;;;;;;2.28;1.73;;;;;15.50;99657.00;;;;5070999;28;20207;-76
2021/05/04 01:45:26;;;;;;;1.70;1.50;;;;;15.50;99661.00;;;;5070114;28;20705;-77
2021/05/04 01:47:53;;;;;;;1.50;1.30;;;;;15.40;99663.00;;;;5070012;28;20203;-77
2021/05/04 01:50:19;;;;;;;1.58;1.27;;;;;15.40;99649.00;;;;5070567;28;20206;-77
2021/05/04 01:52:46;;;;;;;1.63;1.40;;;;;15.40;99632.00;;;;5070677;28;20276;-77
2021/05/04 01:55:14;;;;;;;1.20;1.10;;;;;15.30;99628.00;;;;5070050;28;20250;-77
2021/05/04 01:57:41;;;;;;;3.25;1.35;;;;;15.30;99630.00;;;;5070308;28;20648;-77
2021/05/04 02:00:10;;;;;;;6.55;1.67;;;;;15.30;99621.00;;;;5080691;28;20205;-77
2021/05/04 02:02:37;;;;;;;2.25;1.60;;;;;15.30;99611.00;;;;5089875;28;20579;-77
2021/05/04 02:05:04;;;;;;;4.57;1.38;;;;;15.20;99602.00;;;;5090241;28;20540;-77
2021/05/04 02:07:31;;;;;;;1.75;1.40;;;;;15.20;99595.00;;;;5090726;28;20202;-77
2021/05/04 02:09:58;;;;;;;3.95;1.45;;;;;15.20;99582.00;;;;5090427;28;20203;-76
2021/05/04 02:12:26;;;;;;;2.80;1.25;;;;;15.10;99600.00;;;;5090427;28;20241;-76
2021/05/04 02:14:53;;;;;;;2.08;1.35;;;;;15.10;99574.00;;;;5089570;28;20214;-77
2021/05/04 02:17:20;;;;;;;1.55;1.45;;;;;15.10;99574.00;;;;5088926;28;20225;-76
2021/05/04 02:19:46;;;;;;;1.60;1.20;;;;;15.00;99567.00;;;;5088091;28;20668;-76
2021/05/04 02:22:13;;;;;;;1.52;1.25;;;;;15.00;99563.00;;;;5069891;28;20202;-77
2021/05/04 02:24:40;;;;;;;1.77;1.33;;;;;15.00;99566.00;;;;5068715;28;20218;-77
2021/05/04 02:27:07;;;;;;;3.42;1.80;;;;;15.00;99533.00;;;;5069775;28;20207;-77
2021/05/04 02:29:34;;;;;;;1.58;1.45;;;;;14.90;99531.00;;;;5069741;28;20214;-77
2021/05/04 02:32:01;;;;;;;1.98;1.50;;;;;14.90;99522.00;;;;5069030;28;20669;-77
2021/05/04 02:34:28;;;;;;;1.70;1.10;;;;;14.90;99510.00;;;;5069663;28;20209;-76
2021/05/04 02:36:55;;;;;;;1.45;1.20;;;;;14.90;99492.00;;;;5069467;28;20732;-76
2021/05/04 02:39:21;;;;;;;4.70;1.27;;;;;14.90;99489.00;;;;5069013;28;20229;-76
2021/05/04 02:41:48;;;;;;;1.25;1.08;;;;;14.90;99492.00;;;;5068744;28;20199;-77
2021/05/04 02:44:15;;;;;;;1.30;1.20;;;;;14.90;99480.00;;;;5067886;28;20230;-76
2021/05/04 02:46:43;;;;;;;1.48;1.10;;;;;14.90;99475.00;;;;5068191;28;20199;-77
2021/05/04 02:49:09;;;;;;;1.45;1.20;;;;;14.90;99475.00;;;;5068816;28;20199;-78
2021/05/04 02:51:36;;;;;;;2.17;1.45;;;;;14.90;99470.00;;;;5069078;28;20247;-78
2021/05/04 02:54:04;;;;;;;2.47;1.25;;;;;14.90;99465.00;;;;5068268;28;20199;-77
2021/05/04 02:56:30;;;;;;;1.63;1.30;;;;;14.90;99455.00;;;;5068190;28;20194;-77
2021/05/04 02:58:57;;;;;;;3.97;1.33;;;;;14.80;99456.00;;;;5067800;28;20199;-75
2021/05/04 03:01:24;;;;;;;1.85;1.50;;;;;14.80;99463.00;;;;5068435;28;20202;-76
2021/05/04 03:03:52;;;;;;;1.17;0.90;;;;;14.80;99448.00;;;;5068547;28;20202;-77
2021/05/04 03:06:19;;;;;;;1.40;1.10;;;;;14.80;99453.00;;;;5068179;28;20213;-77
2021/05/04 03:08:45;;;;;;;1.40;1.13;;;;;14.80;99428.00;;;;5083737;28;20252;-77
2021/05/04 03:11:12;;;;;;;1.10;1.00;;;;;14.70;99427.00;;;;5087739;28;20214;-77
2021/05/04 03:13:39;;;;;;;0.95;0.77;;;;;14.70;99414.00;;;;5088802;28;20202;-77
2021/05/04 03:16:06;;;;;;;1.25;1.15;;;;;14.70;99406.00;;;;5088261;28;20198;-77
2021/05/04 03:18:33;;;;;;;1.02;0.93;;;;;14.70;99409.00;;;;5088210;28;20222;-78
2021/05/04 03:21:00;;;;;;;1.30;1.20;;;;;14.70;99413.00;;;;5087256;28;20206;-77
2021/05/04 03:23:27;;;;;;;2.10;1.10;;;;;14.70;99393.00;;;;5089310;28;20247;-78
2021/05/04 03:25:54;;;;;;;1.60;1.02;;;;;14.70;99378.00;;;;5070765;28;20298;-77
2021/05/04 03:28:21;;;;;;;1.23;1.00;;;;;14.80;99382.00;;;;5067828;28;20301;-78
2021/05/04 03:30:47;;;;;;;3.42;1.33;;;;;14.80;99376.00;;;;5067434;28;20207;-78
2021/05/04 03:33:15;;;;;;;1.30;1.00;;;;;14.80;99387.00;;;;5068143;28;20550;-78
2021/05/04 03:35:41;;;;;;;4.00;1.20;;;;;14.80;99380.00;;;;5067536;28;20254;-78
2021/05/04 03:38:09;;;;;;;2.55;1.08;;;;;14.80;99386.00;;;;5067866;28;20218;-77
2021/05/04 03:40:36;;;;;;;2.03;1.33;;;;;14.80;99385.00;;;;5067910;28;20637;-77
2021/05/04 03:43:03;;;;;;;2.53;1.20;;;;;14.80;99382.00;;;;5067966;28;20606;-78
2021/05/04 03:45:30;;;;;;;2.03;1.23;;;;;14.80;99380.00;;;;5067915;28;20234;-77
2021/05/04 03:47:56;;;;;;;1.63;1.08;;;;;14.80;99365.00;;;;5067400;28;20202;-77
2021/05/04 03:50:26;;;;;;;1.73;1.33;;;;;14.80;99365.00;;;;5068095;28;20202;-77
2021/05/04 03:52:53;;;;;;;1.10;0.88;;;;;14.80;99362.00;;;;5067480;28;20680;-77
2021/05/04 03:55:21;;;;;;;2.00;1.10;;;;;14.80;99344.00;;;;5067864;28;20287;-77
2021/05/04 03:57:48;;;;;;;2.95;1.50;;;;;14.70;99355.00;;;;5071641;28;20237;-77
2021/05/04 04:00:16;;;;;;;1.27;1.15;;;;;14.70;99354.00;;;;5091956;28;20202;-77
2021/05/04 04:02:43;;;;;;;1.48;1.30;;;;;14.70;99347.00;;;;5091782;28;20239;-77
2021/05/04 04:05:11;;;;;;;1.92;1.10;;;;;14.70;99340.00;;;;5091887;28;20634;-77
2021/05/04 04:07:38;;;;;;;1.20;1.10;;;;;14.70;99344.00;;;;5091854;28;20520;-78
2021/05/04 04:10:06;;;;;;;3.40;1.17;;;;;14.70;99333.00;;;;5091875;28;20225;-77
2021/05/04 04:12:34;;;;;;;1.63;1.10;;;;;14.70;99348.00;;;;5091919;28;20229;-78
2021/05/04 04:15:01;;;;;;;1.42;1.33;;;;;14.70;99349.00;;;;5090721;28;20583;-76
2021/05/04 04:17:27;;;;;;;1.58;1.35;;;;;14.70;99341.00;;;;5092138;28;20291;-77
2021/05/04 04:19:54;;;;;;;1.65;1.10;;;;;14.70;99328.00;;;;5090487;28;20202;-78
2021/05/04 04:22:21;;;;;;;1.40;1.30;;;;;14.70;99326.00;;;;5079491;28;20244;-77
2021/05/04 04:24:47;;;;;;;1.73;1.33;;;;;14.70;99324.00;;;;5091754;28;20247;-77
2021/05/04 04:27:14;;;;;;;1.27;1.00;;;;;14.70;99326.00;;;;5091288;28;20683;-74
2021/05/04 04:29:42;;;;;;;0.80;0.80;;;;;14.70;99326.00;;;;5091119;28;20198;-74
2021/05/04 04:32:08;;;;;;;2.95;1.40;;;;;14.70;99313.00;;;;5088280;28;20586;-75
2021/05/04 04:34:35;;;;;;;1.38;0.90;;;;;14.70;99304.00;;;;5071959;28;20198;-75
2021/05/04 04:37:02;;;;;;;1.70;1.02;;;;;14.70;99311.00;;;;5071595;28;20256;-75
2021/05/04 04:39:28;;;;;;;1.45;1.00;;;;;14.70;99299.00;;;;5071947;28;20199;-75
2021/05/04 04:41:55;;;;;;;0.90;0.68;;;;;14.70;99306.00;;;;5071497;28;20207;-76
2021/05/04 04:44:22;;;;;;;1.95;1.00;;;;;14.70;99294.00;;;;5071975;28;20235;-76
2021/05/04 04:46:50;;;;;;;1.35;1.00;;;;;14.70;99288.00;;;;5071644;28;20199;-76
2021/05/04 04:49:18;;;;;;;1.75;0.93;;;;;14.70;99291.00;;;;5071849;28;20226;-76
2021/05/04 04:51:46;;;;;;;2.15;0.98;;;;;14.70;99289.00;;;;5070759;28;20210;-76
2021/05/04 04:54:13;;;;;;;2.58;1.20;;;;;14.70;99279.00;;;;5071345;28;20207;-76
2021/05/04 04:56:41;;;;;;;0.90;0.85;;;;;14.70;99299.00;;;;5071487;28;20195;-76
2021/05/04 04:59:08;;;;;;;2.08;0.90;;;;;14.70;99289.00;;;;5071253;28;20226;-76
2021/05/04 05:01:36;;;;;;;4.47;1.38;;;;;14.70;99275.00;;;;5070807;28;20203;-76
2021/05/04 05:04:04;;;;;;;1.20;0.98;;;;;14.70;99272.00;;;;5071780;28;20571;-76
2021/05/04 05:06:31;;;;;;;1.38;1.08;;;;;14.80;99278.00;;;;5075725;28;20694;-76
2021/05/04 05:08:58;;;;;;;2.08;1.23;;;;;14.80;99275.00;;;;5091082;28;20206;-76
2021/05/04 05:11:25;;;;;;;3.30;1.27;;;;;14.80;99277.00;;;;5091417;28;20305;-76
2021/05/04 05:13:52;;;;;;;2.22;1.05;;;;;14.80;99273.00;;;;5091067;28;20202;-76
2021/05/04 05:16:21;;;;;;;2.33;1.05;;;;;14.80;99296.00;;;;5090902;28;20255;-76
2021/05/04 05:18:48;;;;;;;1.90;0.73;;;;;14.80;99299.00;;;;5091133;28;20226;-76
2021/05/04 05:21:16;;;;;;;3.53;1.40;;;;;14.80;99262.00;;;;5090181;28;20232;-76
2021/05/04 05:23:43;;;;;;;1.67;0.82;;;;;14.90;99269.00;;;;5083564;28;20214;-76
2021/05/04 05:26:10;;;;;;;1.65;0.70;;;;;14.90;99250.00;;;;5070727;28;20684;-76
2021/05/04 05:28:38;;;;;;;1.30;0.68;;;;;14.90;99268.00;;;;5070781;28;20206;-76
2021/05/04 05:31:05;;;;;;;1.92;0.65;;;;;14.90;99268.00;;;;5070553;28;20208;-75
2021/05/04 05:33:32;;;;;;;3.15;0.57;;;;;14.90;99261.00;;;;5070447;28;20199;-76
2021/05/04 05:35:59;;;;;;;1.65;0.60;;;;;14.90;99259.00;;;;5070723;28;20586;-75
2021/05/04 05:38:27;;;;;;;3.17;0.52;;;;;14.90;99267.00;;;;5070458;28;20223;-76
2021/05/04 05:40:55;;;;;;;3.80;0.73;;;;;14.90;99262.00;;;;5071349;28;20202;-76
2021/05/04 05:43:21;;;;;;;2.08;0.32;;;;;14.80;99312.00;;;;5070184;28;20218;-76
2021/05/04 05:45:48;;;;;;;0.98;0.30;;;;;14.70;99268.00;;;;5070548;28;20218;-75
2021/05/04 05:48:15;;;;;;;1.75;0.55;;;;;14.60;99289.00;;;;5070217;28;20210;-75
2021/05/04 05:50:42;;;;;;;1.20;0.47;;;;;14.60;99272.00;;;;5070600;28;20195;-75
2021/05/04 05:53:08;;;;;;;2.97;0.88;;;;;14.50;99275.00;;;;5069767;28;20747;-75
2021/05/04 05:55:36;;;;;;;2.80;0.85;;;;;14.40;99283.00;;;;5070057;28;20206;-75
2021/05/04 05:58:03;;;;;;;3.25;0.63;;;;;14.30;99258.00;;;;5080247;28;20222;-75
2021/05/04 06:00:30;;;;;;;4.53;0.68;;;;;14.20;99257.00;;;;5090428;28;20583;-75
2021/05/04 06:02:59;;;;;;;1.20;0.40;;;;;14.00;99261.00;;;;5089941;28;20221;-74
2021/05/04 06:05:25;;;;;;;1.60;0.47;;;;;13.90;99277.00;;;;5090612;28;20240;-75
2021/05/04 06:07:52;;;;;;;8.98;0.30;;;;;13.80;99267.00;;;;5089568;28;20238;-74
2021/05/04 06:10:19;;;;;;;1.95;0.30;;;;;13.70;99265.00;;;;5090093;28;20247;-75
2021/05/04 06:12:54;;;;;;;0.90;0.30;;;;;13.60;99277.00;;;;5090300;28;20268;-74
2021/05/04 06:15:21;;;;;;;1.05;0.35;;;;;13.50;99259.00;;;;5089352;28;20209;-74
2021/05/04 06:17:48;;;;;;;2.10;0.60;;;;;13.40;99285.00;;;;5090070;28;20238;-74
2021/05/04 06:20:16;;;;;;;2.75;0.32;;;;;13.30;99274.00;;;;5086751;28;20210;-74
2021/05/04 06:22:42;;;;;;;3.35;0.35;;;;;13.30;99257.00;;;;5069225;28;20207;-74
2021/05/04 06:25:10;;;;;;;0.80;0.30;;;;;13.30;99257.00;;;;5069713;28;20256;-74
2021/05/04 06:27:37;;;;;;;1.33;0.50;;;;;13.30;99260.00;;;;5069240;28;20214;-74
2021/05/04 06:30:05;;;;;;;1.58;0.77;;;;;13.30;99255.00;;;;5068429;28;20203;-74
2021/05/04 06:32:32;;;;;;;1.77;0.60;;;;;13.40;99260.00;;;;5082940;28;20564;-73
2021/05/04 06:34:59;;;;;;;1.67;0.80;;;;;13.40;99244.00;;;;5088895;28;20228;-73
2021/05/04 06:37:26;;;;;;;2.67;0.80;;;;;13.50;99255.00;;;;5088991;28;20214;-73
2021/05/04 06:39:53;;;;;;;2.38;1.15;;;;;13.60;99249.00;;;;5088592;28;20206;-74
2021/05/04 06:42:19;;;;;;;5.13;0.88;;;;;13.70;99258.00;;;;5089287;28;20280;-73
2021/05/04 06:44:46;;;;;;;2.42;0.90;;;;;13.80;99261.00;;;;5089091;28;20226;-73
2021/05/04 06:47:14;;;;;;;3.65;1.10;;;;;13.80;99251.00;;;;5088526;28;20210;-73
2021/05/04 06:49:41;;;;;;;7.25;1.33;;;;;13.90;99256.00;;;;5087390;28;20206;-73
2021/05/04 06:52:08;;;;;;;3.47;1.80;;;;;14.00;99232.00;;;;5088635;28;20202;-74
2021/05/04 06:54:34;;;;;;;3.03;1.85;;;;;14.00;99232.00;;;;5088492;28;20247;-74
2021/05/04 06:57:01;;;;;;;2.47;1.00;;;;;14.10;99242.00;;;;5079708;28;20195;-73
2021/05/04 06:59:28;;;;;;;3.78;1.20;;;;;14.20;99237.00;;;;5068752;28;20568;-73
2021/05/04 07:01:56;;;;;;;3.00;1.08;;;;;14.20;99238.00;;;;5068087;28;20613;-73
2021/05/04 07:04:23;;;;;;;5.32;1.90;;;;;14.30;99248.00;;;;5068484;28;20241;-73
2021/05/04 07:06:50;;;;;;;5.85;1.67;;;;;14.30;99241.00;;;;5068679;28;20218;-73
2021/05/04 07:09:17;;;;;;;4.70;1.40;;;;;14.40;99240.00;;;;5068043;28;20584;-74
2021/05/04 07:11:43;;;;;;;6.13;1.77;;;;;14.40;99238.00;;;;5067977;28;20215;-73
2021/05/04 07:14:10;;;;;;;6.70;1.48;;;;;14.40;99234.00;;;;5068137;28;20207;-73
2021/05/04 07:16:37;;;;;;;6.03;0.95;;;;;14.40;99224.00;;;;5068130;28;20660;-74
2021/05/04 07:19:04;;;;;;;4.70;1.42;;;;;14.50;99218.00;;;;5067251;28;20222;-74
2021/05/04 07:21:33;;;;;;;5.35;1.33;;;;;14.50;99232.00;;;;5075732;28;20194;-73
2021/05/04 07:24:00;;;;;;;6.15;1.15;;;;;14.60;99231.00;;;;5085408;28;20206;-73
2021/05/04 07:26:27;;;;;;;4.40;0.80;;;;;14.60;99227.00;;;;5088189;28;20194;-74
2021/05/04 07:28:53;;;;;;;5.40;1.13;;;;;14.70;99228.00;;;;5087810;28;20264;-73
2021/05/04 07:31:20;;;;;;;8.77;1.42;;;;;14.80;99223.00;;;;5088138;28;20209;-74
2021/05/04 07:33:48;;;;;;;3.67;1.15;;;;;14.80;99243.00;;;;5088394;28;20614;-74
2021/05/04 07:36:14;;;;;;;6.63;1.50;;;;;14.90;99229.00;;;;5087185;28;20591;-74
2021/05/04 07:38:42;;;;;;;3.70;1.30;;;;;15.00;99220.00;;;;5087845;28;20233;-74
2021/05/04 07:41:09;;;;;;;4.85;1.55;;;;;15.10;99241.00;;;;5068329;28;20206;-74
2021/05/04 07:43:37;;;;;;;6.18;1.90;;;;;15.20;99229.00;;;;5067920;28;20202;-74
2021/05/04 07:46:03;;;;;;;4.47;1.45;;;;;15.30;99239.00;;;;5067916;28;20257;-74
2021/05/04 07:48:30;;;;;;;3.20;1.08;;;;;15.40;99240.00;;;;5068013;28;20201;-74
2021/05/04 07:50:57;;;;;;;4.72;1.13;;;;;15.40;99251.00;;;;5068251;28;20210;-74
2021/05/04 07:53:24;;;;;;;3.28;0.90;;;;;15.50;99246.00;;;;5069130;28;20198;-73
2021/05/04 07:55:51;;;;;;;4.78;0.90;;;;;15.60;99252.00;;;;5068642;28;20199;-74
2021/05/04 07:58:18;;;;;;;2.33;0.65;;;;;15.60;99248.00;;;;5067666;28;20271;-74
2021/05/04 08:00:45;;;;;;;3.08;1.40;;;;;15.70;99244.00;;;;5068633;28;20207;-75
2021/05/04 08:03:14;;;;;;;4.90;1.20;;;;;15.70;99239.00;;;;5068111;28;20199;-74
2021/05/04 08:05:40;;;;;;;2.17;1.00;;;;;15.80;99237.00;;;;5068849;28;20207;-74
2021/05/04 08:08:11;;;;;;;4.07;1.40;;;;;15.80;99250.00;;;;5067979;28;20244;-75
2021/05/04 08:10:38;;;;;;;5.18;1.20;;;;;15.80;99234.00;;;;5068649;28;20293;-74
2021/05/04 08:13:06;;;;;;;2.33;1.27;;;;;15.70;99246.00;;;;5067540;28;20226;-75
2021/05/04 08:15:33;;;;;;;3.20;0.75;;;;;15.80;99240.00;;;;5068729;28;20607;-74
2021/05/04 08:18:02;;;;;;;4.53;1.17;;;;;15.80;99234.00;;;;5067583;28;20230;-74
2021/05/04 08:20:31;;;;;;;5.88;1.55;;;;;15.80;99241.00;;;;5068275;28;20374;-75
2021/05/04 08:22:58;;;;;;;2.05;1.45;;;;;15.80;99252.00;;;;5067518;28;20203;-74
2021/05/04 08:25:25;;;;;;;3.17;0.88;;;;;15.80;99242.00;;;;5067742;28;20203;-74
2021/05/04 08:27:52;;;;;;;6.57;1.25;;;;;15.80;99246.00;;;;5068447;28;20203;-74
2021/05/04 08:30:20;;;;;;;4.97;1.20;;;;;15.80;99234.00;;;;5067848;28;20207;-74
2021/05/04 08:32:48;;;;;;;3.30;1.30;;;;;15.90;99239.00;;;;5068292;28;20688;-74
2021/05/04 08:35:15;;;;;;;3.28;1.10;;;;;15.90;99235.00;;;;5067978;28;20241;-74
2021/05/04 08:37:42;;;;;;;10.73;2.05;;;;;16.00;99237.00;;;;5067509;28;20297;-74
2021/05/04 08:40:10;;;;;;;2.63;1.25;;;;;16.00;99234.00;;;;5067726;28;20206;-74
2021/05/04 08:42:37;;;;;;;5.03;1.52;;;;;16.00;99232.00;;;;5069340;28;20198;-74
2021/05/04 08:45:05;;;;;;;5.80;1.52;;;;;15.90;99240.00;;;;5071528;28;20311;-74
2021/05/04 08:47:33;;;;;;;3.70;0.93;;;;;15.80;99233.00;;;;5071514;28;20199;-74
2021/05/04 08:50:00;;;;;;;3.90;1.20;;;;;15.70;99232.00;;;;5070528;28;20195;-74
2021/05/04 08:52:27;;;;;;;4.22;1.40;;;;;15.60;99236.00;;;;5071683;28;20602;-74
2021/05/04 08:54:54;;;;;;;4.82;1.30;;;;;15.60;99231.00;;;;5071417;28;20641;-74
2021/05/04 08:57:20;;;;;;;3.75;1.55;;;;;15.60;99213.00;;;;5071642;28;20199;-75
2021/05/04 08:59:47;;;;;;;4.88;1.27;;;;;15.70;99215.00;;;;5071534;28;20199;-75
2021/05/04 09:02:14;;;;;;;2.97;0.95;;;;;15.70;99214.00;;;;5070994;28;20195;-75
2021/05/04 09:04:47;;;;;;;3.95;1.20;;;;;15.80;99226.00;;;;5071456;28;20214;-75
2021/05/04 09:07:19;;;;;;;4.53;1.17;;;;;16.00;99212.00;;;;5070342;28;20575;-75
2021/05/04 09:10:15;;;;;;;4.40;1.55;;;;;16.10;99213.00;;;;5070363;28;20276;-75
2021/05/04 09:12:45;;;;;;;3.92;1.48;;;;;16.30;99211.00;;;;5070382;28;20206;-75
2021/05/04 09:15:56;;;;;;;5.82;1.70;;;;;16.30;99187.00;;;;5069434;28;20283;-75
2021/05/04 09:18:39;;;;;;;2.55;0.77;;;;;16.40;99216.00;;;;5070567;28;20230;-75
2021/05/04 09:21:09;;;;;;;4.00;1.10;;;;;16.40;99238.00;;;;5074433;28;20234;-75
2021/05/04 09:23:36;;;;;;;6.72;1.25;;;;;16.30;99233.00;;;;5070653;28;20212;-75
2021/05/04 09:26:03;;;;;;;3.13;1.35;;;;;16.20;99225.00;;;;5070167;28;20207;-75
2021/05/04 09:28:30;;;;;;;2.05;0.75;;;;;16.10;99221.00;;;;5070548;28;20199;-75
2021/05/04 09:30:57;;;;;;;5.70;1.92;;;;;16.00;99224.00;;;;5069994;28;20206;-75
2021/05/04 09:33:25;;;;;;;5.10;1.45;;;;;15.90;99229.00;;;;5070558;28;20206;-75
2021/05/04 09:35:52;;;;;;;6.18;1.35;;;;;15.90;99224.00;;;;5069850;28;20298;-75
2021/05/04 09:38:20;;;;;;;7.25;1.50;;;;;15.80;99224.00;;;;5070299;28;20231;-75
2021/05/04 09:40:47;;;;;;;6.18;1.50;;;;;15.80;99230.00;;;;5069239;28;20195;-75
2021/05/04 09:43:16;;;;;;;10.15;1.95;;;;;15.80;99258.00;;;;5070155;28;20500;-74
2021/05/04 09:45:44;;;;;;;10.70;1.80;;;;;15.80;99256.00;;;;5069956;28;20227;-75
2021/05/04 09:48:21;;;;;;;8.20;1.42;;;;;15.70;99254.00;;;;5069339;28;20203;-74
2021/05/04 09:50:54;;;;;;;2.88;0.93;;;;;15.70;99266.00;;;;5069211;28;20278;-75
2021/05/04 09:53:24;;;;;;;5.70;2.10;;;;;15.70;99260.00;;;;5070079;28;20190;-75
2021/05/04 09:55:56;;;;;;;4.75;1.00;;;;;15.70;99286.00;;;;5069663;28;20199;-75
2021/05/04 09:58:36;;;;;;;4.30;0.90;;;;;15.60;99305.00;;;;5069480;28;20249;-75
2021/05/04 10:01:06;;;;;;;3.53;0.88;;;;;15.60;99325.00;;;;5086984;28;20198;-75
2021/05/04 10:03:33;;;;;;;2.25;0.50;;;;;15.50;99327.00;;;;5089403;28;20197;-76
2021/05/04 10:06:03;;;;;;;1.40;0.55;;;;;15.50;99309.00;;;;5089405;28;20247;-75
2021/05/04 10:08:32;;;;;;;3.65;0.52;;;;;15.50;99324.00;;;;5089561;28;20238;-75
2021/05/04 10:11:01;;;;;;;3.75;0.55;;;;;15.50;99311.00;;;;5088786;28;20198;-75
2021/05/04 10:13:29;;;;;;;2.10;0.38;;;;;15.60;99314.00;;;;5088951;28;20210;-75
2021/05/04 10:15:57;;;;;;;1.90;0.32;;;;;15.60;99326.00;;;;5089493;28;20206;-75
2021/05/04 10:18:25;;;;;;;1.23;0.45;;;;;15.60;99333.00;;;;5089915;28;20715;-76
2021/05/04 10:20:54;;;;;;;1.92;0.52;;;;;15.60;99341.00;;;;5087585;28;20634;-76
2021/05/04 10:23:22;;;;;;;1.38;0.57;;;;;15.50;99353.00;;;;5078535;28;20198;-75
2021/05/04 10:25:52;;;;;;;4.15;0.75;;;;;15.40;99355.00;;;;5089397;28;20203;-75
2021/05/04 10:28:20;;;;;;;6.35;1.17;;;;;15.30;99345.00;;;;5089012;28;20628;-75
2021/05/04 10:30:47;;;;;;;2.30;0.75;;;;;15.20;99351.00;;;;5072704;28;20203;-75
2021/05/04 10:33:31;;;;;;;2.45;0.70;;;;;15.00;99359.00;;;;5068415;28;20207;-76
2021/05/04 10:35:58;;;;;;;4.70;0.57;;;;;15.00;99366.00;;;;5067982;28;20225;-75
2021/05/04 10:38:24;;;;;;;3.30;0.98;;;;;15.00;99370.00;;;;5069075;28;20226;-76
2021/05/04 10:41:05;;;;;;;3.63;0.93;;;;;15.00;99386.00;;;;5068803;28;20206;-75
2021/05/04 10:43:40;;;;;;;4.10;0.55;;;;;15.00;99385.00;;;;5068990;28;20203;-75
2021/05/04 10:46:11;;;;;;;1.67;0.30;;;;;15.10;99386.00;;;;5068343;28;20312;-75
2021/05/04 10:48:46;;;;;;;3.97;0.88;;;;;15.00;99394.00;;;;5068615;28;20294;-75
2021/05/04 10:51:15;;;;;;;2.50;0.47;;;;;15.10;99403.00;;;;5068530;28;20556;-76
2021/05/04 10:54:03;;;;;;;5.43;0.70;;;;;15.00;99397.00;;;;5067936;28;20213;-75
2021/05/04 10:56:34;;;;;;;1.20;0.30;;;;;15.10;99398.00;;;;5068802;28;20206;-75
2021/05/04 10:59:01;;;;;;;3.08;0.50;;;;;15.20;99430.00;;;;5068424;28;20284;-75
2021/05/04 11:01:28;;;;;;;2.45;0.50;;;;;15.30;99421.00;;;;5068843;28;20202;-76
2021/05/04 11:03:56;;;;;;;2.28;0.77;;;;;15.30;99386.00;;;;5077390;28;20206;-75
2021/05/04 11:06:50;;;;;;;2.35;0.70;;;;;15.30;99410.00;;;;5087583;28;20205;-75
2021/05/04 11:09:18;;;;;;;5.05;0.75;;;;;15.40;99405.00;;;;5088342;28;20206;-75
2021/05/04 11:11:50;;;;;;;1.40;0.35;;;;;15.40;99412.00;;;;5088155;28;20591;-75
2021/05/04 11:14:31;;;;;;;2.20;0.50;;;;;15.40;99420.00;;;;5088743;28;20255;-75
2021/05/04 11:17:09;;;;;;;2.65;0.40;;;;;15.50;99423.00;;;;5087858;28;20354;-76
2021/05/04 11:19:39;;;;;;;3.88;0.82;;;;;15.60;99428.00;;;;5088414;28;20317;-75
2021/05/04 11:22:25;;;;;;;1.33;0.60;;;;;15.50;99413.00;;;;5086080;28;20297;-76
2021/05/04 11:24:57;;;;;;;1.48;0.57;;;;;15.60;99407.00;;;;5088102;28;20591;-76
2021/05/04 11:27:30;;;;;;;1.58;0.57;;;;;15.60;99433.00;;;;5088644;28;20230;-76
2021/05/04 11:30:01;;;;;;;3.13;0.70;;;;;15.70;99434.00;;;;5087884;28;20746;-76
2021/05/04 11:32:39;;;;;;;1.65;0.55;;;;;15.60;99439.00;;;;5088423;28;20198;-76
2021/05/04 11:35:08;;;;;;;2.95;0.65;;;;;15.70;99456.00;;;;5088145;28;20682;-77
2021/05/04 11:37:45;;;;;;;2.92;0.95;;;;;15.60;99436.00;;;;5082174;28;20618;-75
2021/05/04 11:40:17;;;;;;;1.92;0.60;;;;;15.70;99433.00;;;;5068129;28;20201;-76
2021/05/04 11:42:46;;;;;;;1.55;0.80;;;;;15.70;99432.00;;;;5068563;28;20190;-76
2021/05/04 11:45:15;;;;;;;2.58;0.40;;;;;15.70;99445.00;;;;5067982;28;20226;-76
2021/05/04 11:47:44;;;;;;;4.32;0.65;;;;;15.80;99474.00;;;;5068472;28;20198;-76
2021/05/04 11:50:13;;;;;;;1.55;0.70;;;;;15.80;99453.00;;;;5068064;28;20195;-76
2021/05/04 11:52:42;;;;;;;2.38;0.50;;;;;15.80;99453.00;;;;5067959;28;20198;-76
2021/05/04 11:55:18;;;;;;;3.03;0.60;;;;;15.80;99457.00;;;;5068736;28;20376;-76
2021/05/04 11:57:48;;;;;;;2.05;0.32;;;;;15.90;99443.00;;;;5068280;28;20652;-76
2021/05/04 12:00:20;;;;;;;3.28;0.75;;;;;15.90;99482.00;;;;5067855;28;20206;-77
2021/05/04 12:02:47;;;;;;;3.45;0.60;;;;;16.00;99457.00;;;;5068089;28;20187;-75
2021/05/04 12:05:16;;;;;;;2.25;0.88;;;;;16.10;99488.00;;;;5067956;28;20679;-76
2021/05/04 12:07:44;;;;;;;1.85;0.80;;;;;16.10;99485.00;;;;5067933;28;20195;-76
2021/05/04 12:10:24;;;;;;;3.50;0.63;;;;;16.10;99470.00;;;;5067933;28;20256;-76
2021/05/04 12:12:53;;;;;;;2.38;0.82;;;;;16.20;99477.00;;;;5068677;28;20836;-76
2021/05/04 12:15:22;;;;;;;6.68;0.88;;;;;16.20;99485.00;;;;5068123;28;20191;-76
2021/05/04 12:17:57;;;;;;;3.60;1.10;;;;;16.20;99507.00;;;;5070361;28;20688;-76
2021/05/04 12:20:25;;;;;;;2.75;0.80;;;;;16.30;99496.00;;;;5072447;28;20205;-76
2021/05/04 12:22:53;;;;;;;0.93;0.40;;;;;16.30;99486.00;;;;5090075;28;20191;-76